Time,TemperatureF,DewpointF,PressureIn,WindDirection,WindDirectionDegrees,WindSpeedMPH,WindSpeedGustMPH,Humidity,HourlyPrecipIn,Conditions,Clouds,dailyrainin,SoftwareType,DateUTC
2013-02-28 00:01:00,41.2,40.5,29.74,NE,45,0.0,0.0,97,0.00,,,0.00,meteohub,2013-02-28 05:01:00,
2013-02-28 00:02:00,41.2,40.6,29.75,NE,45,0.0,0.0,98,0.00,,,0.00,meteohub,2013-02-28 05:02:00,
2013-02-28 00:07:00,41.4,40.8,29.75,NE,45,0.0,0.0,98,0.00,,,0.00,meteohub,2013-02-28 05:07:00,
2013-02-28 00:12:00,41.4,41.2,29.75,NE,45,0.0,0.0,99,0.00,,,0.00,meteohub,2013-02-28 05:12:00,
2013-02-28 00:17:00,41.2,41.0,29.74,NE,45,0.0,0.0,99,0.00,,,0.00,meteohub,2013-02-28 05:17:00,
2013-02-28 00:22:00,41.2,41.0,29.74,SW,225,0.0,0.0,99,0.00,,,0.00,meteohub,2013-02-28 05:22:00,
2013-02-28 00:27:00,41.2,41.0,29.75,SW,225,0.0,0.0,99,0.00,,,0.00,meteohub,2013-02-28 05:27:00,
2013-02-28 00:33:00,41.4,41.2,29.75,East,90,0.0,0.0,99,0.00,,,0.00,meteohub,2013-02-28 05:33:00,
2013-02-28 00:38:00,41.4,41.2,29.74,East,90,0.0,0.0,99,0.00,,,0.00,meteohub,2013-02-28 05:38:00,
2013-02-28 00:43:00,41.2,41.0,29.75,NE,45,0.0,0.0,99,0.00,,,0.00,meteohub,2013-02-28 05:43:00,
2013-02-28 00:48:00,41.4,41.2,29.75,SW,225,0.0,0.0,99,0.00,,,0.00,meteohub,2013-02-28 05:48:00,
2013-02-28 00:53:00,41.5,41.4,29.76,North,-999,-999.0,0.0,99,0.00,,,0.00,meteohub,2013-02-28 05:53:00,
2013-02-28 00:58:00,41.5,41.4,29.75,SW,225,0.0,0.0,99,0.00,,,0.00,meteohub,2013-02-28 05:58:00,
2013-02-28 01:03:00,41.7,41.5,29.75,SW,225,0.0,0.0,99,0.00,,,0.00,meteohub,2013-02-28 06:03:00,
2013-02-28 01:08:00,41.5,41.4,29.76,SW,225,0.0,0.0,99,0.00,,,0.00,meteohub,2013-02-28 06:08:00,
2013-02-28 01:13:00,41.5,41.4,29.75,SW,225,0.0,0.0,99,0.00,,,0.00,meteohub,2013-02-28 06:13:00,
2013-02-28 01:19:00,41.4,41.2,29.76,West,270,0.0,0.0,99,0.00,,,0.00,meteohub,2013-02-28 06:19:00,
2013-02-28 01:24:00,41.2,41.0,29.76,NE,45,0.0,0.0,99,0.00,,,0.00,meteohub,2013-02-28 06:24:00,
2013-02-28 01:29:00,41.2,41.0,29.76,NE,45,0.0,0.0,99,0.00,,,0.00,meteohub,2013-02-28 06:29:00,
2013-02-28 01:34:00,41.0,40.8,29.76,SW,225,0.0,0.0,99,0.00,,,0.00,meteohub,2013-02-28 06:34:00,
2013-02-28 01:39:00,40.8,40.6,29.76,NE,45,0.0,0.0,99,0.00,,,0.00,meteohub,2013-02-28 06:39:00,
2013-02-28 01:44:00,40.6,40.5,29.76,SW,225,0.0,0.0,99,0.00,,,0.00,meteohub,2013-02-28 06:44:00,
2013-02-28 01:49:00,40.3,40.1,29.77,SW,225,0.0,0.0,99,0.00,,,0.00,meteohub,2013-02-28 06:49:00,
2013-02-28 01:55:00,40.1,39.9,29.77,NE,45,0.0,0.0,99,0.00,,,0.00,meteohub,2013-02-28 06:55:00,
2013-02-28 02:00:00,39.9,39.7,29.77,NE,45,0.0,0.0,99,0.00,,,0.00,meteohub,2013-02-28 07:00:00,
2013-02-28 02:05:00,39.9,39.7,29.77,NE,45,0.0,0.0,99,0.00,,,0.00,meteohub,2013-02-28 07:05:00,
2013-02-28 02:10:00,40.1,39.9,29.77,SW,225,0.0,0.0,99,0.00,,,0.00,meteohub,2013-02-28 07:10:00,
2013-02-28 02:15:00,40.3,40.1,29.77,SW,225,0.0,0.0,99,0.00,,,0.00,meteohub,2013-02-28 07:15:00,
2013-02-28 02:20:00,40.3,40.1,29.76,East,90,0.0,0.0,99,0.00,,,0.00,meteohub,2013-02-28 07:20:00,
2013-02-28 02:25:00,40.3,40.1,29.77,East,90,0.0,0.0,99,0.00,,,0.00,meteohub,2013-02-28 07:25:00,
2013-02-28 02:30:00,39.9,39.7,29.76,East,90,0.0,0.0,99,0.00,,,0.00,meteohub,2013-02-28 07:30:00,
2013-02-28 02:35:00,39.7,39.6,29.76,East,90,0.0,0.0,99,0.00,,,0.00,meteohub,2013-02-28 07:35:00,
2013-02-28 02:40:00,39.4,39.2,29.76,SW,225,0.0,0.0,99,0.00,,,0.00,meteohub,2013-02-28 07:40:00,
2013-02-28 02:45:00,39.4,39.2,29.76,SW,225,0.0,0.0,99,0.00,,,0.00,meteohub,2013-02-28 07:45:00,
2013-02-28 02:50:00,39.0,38.8,29.76,SW,225,0.0,0.0,99,0.00,,,0.00,meteohub,2013-02-28 07:50:00,
2013-02-28 02:55:00,38.8,38.7,29.76,SW,225,0.0,0.0,99,0.00,,,0.00,meteohub,2013-02-28 07:55:00,
2013-02-28 03:00:00,38.5,38.3,29.75,SW,225,0.0,0.0,99,0.00,,,0.00,meteohub,2013-02-28 08:00:00,
2013-02-28 03:05:00,38.1,37.9,29.75,SW,225,0.0,0.0,99,0.00,,,0.00,meteohub,2013-02-28 08:05:00,
2013-02-28 03:10:00,37.9,37.8,29.75,SW,225,0.0,0.0,99,0.00,,,0.00,meteohub,2013-02-28 08:10:00,
2013-02-28 03:15:00,37.8,37.6,29.76,SW,225,0.0,0.0,99,0.00,,,0.00,meteohub,2013-02-28 08:15:00,
2013-02-28 03:20:00,37.8,37.6,29.75,SW,225,0.0,0.0,99,0.00,,,0.00,meteohub,2013-02-28 08:20:00,
2013-02-28 03:25:00,37.2,36.5,29.75,SW,225,0.0,0.0,97,0.00,,,0.00,meteohub,2013-02-28 08:25:00,
2013-02-28 03:31:00,37.2,36.5,29.75,SW,225,0.0,0.0,97,0.00,,,0.00,meteohub,2013-02-28 08:31:00,
2013-02-28 03:36:00,37.0,36.3,29.75,SW,225,0.0,0.0,97,0.00,,,0.00,meteohub,2013-02-28 08:36:00,
2013-02-28 03:42:00,36.7,36.0,29.75,SW,225,0.0,0.0,97,0.00,,,0.00,meteohub,2013-02-28 08:42:00,
2013-02-28 03:47:00,36.7,36.0,29.75,SW,225,0.0,0.0,97,0.00,,,0.00,meteohub,2013-02-28 08:47:00,
2013-02-28 03:52:00,36.5,35.8,29.75,SW,225,0.0,0.0,97,0.00,,,0.00,meteohub,2013-02-28 08:52:00,
2013-02-28 03:57:00,36.3,35.6,29.75,SW,225,0.0,0.0,97,0.00,,,0.00,meteohub,2013-02-28 08:57:00,
2013-02-28 04:02:00,36.1,35.4,29.75,SW,225,0.0,0.0,97,0.00,,,0.00,meteohub,2013-02-28 09:02:00,
2013-02-28 04:07:00,36.1,35.4,29.75,SW,225,0.0,0.0,97,0.00,,,0.00,meteohub,2013-02-28 09:07:00,
2013-02-28 04:12:00,36.0,35.2,29.75,SW,225,0.0,0.0,97,0.00,,,0.00,meteohub,2013-02-28 09:12:00,
2013-02-28 04:17:00,36.0,35.2,29.75,SW,225,0.0,0.0,97,0.00,,,0.00,meteohub,2013-02-28 09:17:00,
2013-02-28 04:22:00,35.8,35.1,29.76,SW,225,0.0,0.0,97,0.00,,,0.00,meteohub,2013-02-28 09:22:00,
2013-02-28 04:27:00,35.8,35.1,29.76,SW,225,0.0,0.0,97,0.00,,,0.00,meteohub,2013-02-28 09:27:00,
2013-02-28 04:32:00,35.6,34.9,29.77,SW,225,0.0,0.0,97,0.00,,,0.00,meteohub,2013-02-28 09:32:00,
2013-02-28 04:37:00,35.6,34.9,29.77,SW,225,0.0,0.0,97,0.00,,,0.00,meteohub,2013-02-28 09:37:00,
2013-02-28 04:42:00,35.6,34.9,29.77,SW,225,0.0,0.0,97,0.00,,,0.00,meteohub,2013-02-28 09:42:00,
2013-02-28 04:47:00,35.2,34.7,29.77,SW,225,0.0,0.0,98,0.00,,,0.00,meteohub,2013-02-28 09:47:00,
2013-02-28 04:52:00,35.2,34.7,29.77,East,90,0.0,0.0,98,0.00,,,0.00,meteohub,2013-02-28 09:52:00,
2013-02-28 04:57:00,35.2,34.7,29.77,East,90,0.0,0.0,98,0.00,,,0.00,meteohub,2013-02-28 09:57:00,
2013-02-28 05:02:00,35.1,34.5,29.78,East,90,0.0,0.0,98,0.00,,,0.00,meteohub,2013-02-28 10:02:00,
2013-02-28 05:07:00,35.1,34.5,29.78,East,90,0.0,0.0,98,0.00,,,0.00,meteohub,2013-02-28 10:07:00,
2013-02-28 05:12:00,34.9,34.3,29.78,East,90,0.0,0.0,98,0.00,,,0.00,meteohub,2013-02-28 10:12:00,
2013-02-28 05:17:00,34.9,34.3,29.78,SW,225,0.0,0.0,98,0.00,,,0.00,meteohub,2013-02-28 10:17:00,
2013-02-28 05:22:00,35.1,34.5,29.78,SW,225,0.0,0.0,98,0.00,,,0.00,meteohub,2013-02-28 10:22:00,
2013-02-28 05:27:00,35.1,34.5,29.78,SW,225,0.0,0.0,98,0.00,,,0.00,meteohub,2013-02-28 10:27:00,
2013-02-28 05:32:00,35.1,34.5,29.78,East,90,0.0,0.0,98,0.00,,,0.00,meteohub,2013-02-28 10:32:00,
2013-02-28 05:37:00,35.2,34.7,29.79,NE,45,0.0,0.0,98,0.00,,,0.00,meteohub,2013-02-28 10:37:00,
2013-02-28 05:42:00,35.6,34.9,29.80,SW,225,0.0,0.0,97,0.00,,,0.00,meteohub,2013-02-28 10:42:00,
2013-02-28 05:47:00,35.6,34.9,29.79,SW,225,0.0,0.0,97,0.00,,,0.00,meteohub,2013-02-28 10:47:00,
2013-02-28 05:52:00,35.8,35.1,29.79,SW,225,0.0,0.0,97,0.00,,,0.00,meteohub,2013-02-28 10:52:00,
2013-02-28 05:58:00,35.8,35.1,29.79,SW,225,0.0,0.0,97,0.00,,,0.00,meteohub,2013-02-28 10:58:00,
2013-02-28 06:03:00,36.0,35.2,29.79,SW,225,0.0,0.0,97,0.00,,,0.00,meteohub,2013-02-28 11:03:00,
2013-02-28 06:08:00,36.0,35.2,29.79,SW,225,0.0,0.0,97,0.00,,,0.00,meteohub,2013-02-28 11:08:00,
2013-02-28 06:13:00,36.1,35.4,29.80,SW,225,0.0,0.0,97,0.00,,,0.00,meteohub,2013-02-28 11:13:00,
2013-02-28 06:18:00,36.3,35.6,29.80,SW,225,0.0,0.0,97,0.00,,,0.00,meteohub,2013-02-28 11:18:00,
2013-02-28 06:23:00,36.5,35.8,29.80,SW,225,0.0,0.0,97,0.00,,,0.00,meteohub,2013-02-28 11:23:00,
2013-02-28 06:28:00,36.7,36.0,29.80,SW,225,0.0,0.0,97,0.00,,,0.00,meteohub,2013-02-28 11:28:00,
2013-02-28 06:33:00,36.9,36.1,29.79,SW,225,0.0,0.0,97,0.00,,,0.00,meteohub,2013-02-28 11:33:00,
2013-02-28 06:38:00,37.0,36.3,29.79,SW,225,0.0,0.0,97,0.00,,,0.00,meteohub,2013-02-28 11:38:00,
2013-02-28 06:43:00,37.0,36.3,29.79,SW,225,0.0,0.0,97,0.00,,,0.00,meteohub,2013-02-28 11:43:00,
2013-02-28 06:48:00,37.0,36.3,29.80,SW,225,0.0,0.0,97,0.00,,,0.00,meteohub,2013-02-28 11:48:00,
2013-02-28 06:54:00,37.0,36.3,29.80,SW,225,0.0,0.0,97,0.00,,,0.00,meteohub,2013-02-28 11:54:00,
2013-02-28 06:59:00,37.0,36.3,29.80,SW,225,0.0,0.0,97,0.00,,,0.00,meteohub,2013-02-28 11:59:00,
2013-02-28 07:04:00,37.2,36.5,29.80,SW,225,0.0,0.0,97,0.00,,,0.00,meteohub,2013-02-28 12:04:00,
2013-02-28 07:09:00,37.2,36.5,29.81,SW,225,0.0,0.0,97,0.00,,,0.00,meteohub,2013-02-28 12:09:00,
2013-02-28 07:14:00,37.2,36.5,29.81,SW,225,0.0,0.0,97,0.00,,,0.00,meteohub,2013-02-28 12:14:00,
2013-02-28 07:19:00,37.4,37.2,29.81,SW,225,0.0,0.0,99,0.00,,,0.00,meteohub,2013-02-28 12:19:00,
2013-02-28 07:24:00,37.6,37.4,29.81,SW,225,0.0,0.0,99,0.00,,,0.00,meteohub,2013-02-28 12:24:00,
2013-02-28 07:29:00,37.9,37.8,29.81,SW,225,0.0,0.0,99,0.00,,,0.00,meteohub,2013-02-28 12:29:00,
2013-02-28 07:34:00,38.1,37.9,29.81,SW,225,0.0,0.0,99,0.00,,,0.00,meteohub,2013-02-28 12:34:00,
2013-02-28 07:39:00,38.5,38.3,29.81,SW,225,0.0,0.0,99,0.00,,,0.00,meteohub,2013-02-28 12:39:00,
2013-02-28 07:44:00,38.7,38.5,29.81,SW,225,0.0,0.0,99,0.00,,,0.00,meteohub,2013-02-28 12:44:00,
2013-02-28 07:49:00,39.2,39.0,29.81,SW,225,0.0,0.0,99,0.00,,,0.00,meteohub,2013-02-28 12:49:00,
2013-02-28 07:54:00,39.4,39.2,29.81,SW,225,0.0,0.0,99,0.00,,,0.00,meteohub,2013-02-28 12:54:00,
2013-02-28 08:00:00,39.7,39.6,29.81,SW,225,0.0,0.0,99,0.00,,,0.00,meteohub,2013-02-28 13:00:00,
2013-02-28 08:05:00,40.3,40.1,29.81,SW,225,0.0,0.0,99,0.00,,,0.00,meteohub,2013-02-28 13:05:00,
2013-02-28 08:10:00,40.6,40.5,29.81,SW,225,0.0,0.0,99,0.00,,,0.00,meteohub,2013-02-28 13:10:00,
2013-02-28 08:15:00,41.0,40.8,29.81,SW,225,0.0,0.0,99,0.00,,,0.00,meteohub,2013-02-28 13:15:00,
2013-02-28 08:20:00,41.4,41.2,29.81,SW,225,0.0,0.0,99,0.00,,,0.00,meteohub,2013-02-28 13:20:00,
2013-02-28 08:25:00,41.7,41.5,29.81,SW,225,0.0,0.0,99,0.00,,,0.00,meteohub,2013-02-28 13:25:00,
2013-02-28 08:30:00,41.9,41.7,29.81,SW,225,0.0,0.0,99,0.00,,,0.00,meteohub,2013-02-28 13:30:00,
2013-02-28 08:35:00,42.3,42.1,29.82,SW,225,0.0,0.0,99,0.00,,,0.00,meteohub,2013-02-28 13:35:00,
2013-02-28 08:40:00,42.6,42.4,29.82,SW,225,0.0,0.0,99,0.00,,,0.00,meteohub,2013-02-28 13:40:00,
2013-02-28 08:45:00,43.0,42.4,29.82,SW,225,0.0,0.0,98,0.00,,,0.00,meteohub,2013-02-28 13:45:00,
2013-02-28 08:50:00,43.2,42.6,29.82,SW,225,0.0,0.0,98,0.00,,,0.00,meteohub,2013-02-28 13:50:00,
2013-02-28 08:55:00,43.3,42.8,29.82,SW,225,0.0,0.0,98,0.00,,,0.00,meteohub,2013-02-28 13:55:00,
2013-02-28 09:00:00,43.5,43.0,29.81,SW,225,0.0,0.0,98,0.00,,,0.00,meteohub,2013-02-28 14:00:00,
2013-02-28 09:05:00,43.9,43.2,29.81,SW,225,0.0,0.0,97,0.00,,,0.00,meteohub,2013-02-28 14:05:00,
2013-02-28 09:10:00,43.9,41.9,29.81,SW,225,0.0,0.0,93,0.00,,,0.00,meteohub,2013-02-28 14:10:00,
2013-02-28 09:15:00,44.1,41.9,29.80,SW,225,0.0,0.0,92,0.00,,,0.00,meteohub,2013-02-28 14:15:00,
2013-02-28 09:20:00,44.2,41.2,29.81,SW,225,0.0,0.0,89,0.00,,,0.00,meteohub,2013-02-28 14:20:00,
2013-02-28 09:25:00,44.4,40.5,29.81,SW,225,0.0,0.0,86,0.00,,,0.00,meteohub,2013-02-28 14:25:00,
2013-02-28 09:30:00,44.4,40.3,29.81,SW,225,0.0,0.0,85,0.00,,,0.00,meteohub,2013-02-28 14:30:00,
2013-02-28 09:36:00,44.6,40.1,29.81,SW,225,0.0,0.0,84,0.00,,,0.00,meteohub,2013-02-28 14:36:00,
2013-02-28 09:41:00,44.8,39.9,29.81,East,90,0.0,0.0,83,0.00,,,0.00,meteohub,2013-02-28 14:41:00,
2013-02-28 09:46:00,45.1,40.3,29.81,SW,225,0.0,0.0,83,0.00,,,0.00,meteohub,2013-02-28 14:46:00,
2013-02-28 09:51:00,45.3,39.9,29.81,SW,225,1.0,0.0,81,0.00,,,0.00,meteohub,2013-02-28 14:51:00,
2013-02-28 09:56:00,45.3,39.9,29.81,SW,225,0.0,2.0,81,0.00,,,0.00,meteohub,2013-02-28 14:56:00,
2013-02-28 10:01:00,45.5,39.7,29.81,SW,225,1.0,2.0,80,0.00,,,0.00,meteohub,2013-02-28 15:01:00,
2013-02-28 10:06:00,45.7,39.9,29.81,SW,225,0.0,2.0,80,0.00,,,0.00,meteohub,2013-02-28 15:06:00,
2013-02-28 10:12:00,45.9,39.7,29.81,SW,225,0.0,2.0,79,0.00,,,0.00,meteohub,2013-02-28 15:12:00,
2013-02-28 10:17:00,46.0,40.3,29.81,SW,225,0.0,1.0,80,0.00,,,0.00,meteohub,2013-02-28 15:17:00,
2013-02-28 10:22:00,46.2,39.7,29.81,West,270,0.0,2.0,78,0.00,,,0.00,meteohub,2013-02-28 15:22:00,
2013-02-28 10:27:00,46.4,39.6,29.81,West,270,0.0,2.0,77,0.00,,,0.00,meteohub,2013-02-28 15:27:00,
2013-02-28 10:32:00,46.8,39.9,29.81,South,180,1.0,2.0,77,0.00,,,0.00,meteohub,2013-02-28 15:32:00,
2013-02-28 10:37:00,47.1,39.9,29.81,North,0,2.0,2.0,76,0.00,,,0.00,meteohub,2013-02-28 15:37:00,
2013-02-28 10:42:00,47.1,39.6,29.81,West,270,0.0,2.0,75,0.00,,,0.00,meteohub,2013-02-28 15:42:00,
2013-02-28 10:47:00,47.3,38.7,29.81,SW,225,2.0,2.0,72,0.00,,,0.00,meteohub,2013-02-28 15:47:00,
2013-02-28 10:52:00,47.7,39.0,29.81,West,270,2.0,2.0,72,0.00,,,0.00,meteohub,2013-02-28 15:52:00,
2013-02-28 10:57:00,47.8,39.2,29.81,SW,225,1.0,2.0,72,0.00,,,0.00,meteohub,2013-02-28 15:57:00,
2013-02-28 11:02:00,47.8,38.5,29.81,WNW,293,1.0,2.0,70,0.00,,,0.00,meteohub,2013-02-28 16:02:00,
2013-02-28 11:07:00,48.0,39.4,29.81,South,180,1.0,3.0,72,0.00,,,0.00,meteohub,2013-02-28 16:07:00,
2013-02-28 11:12:00,48.4,40.1,29.81,NE,45,1.0,3.0,73,0.00,,,0.00,meteohub,2013-02-28 16:12:00,
2013-02-28 11:17:00,48.9,40.6,29.81,West,270,2.0,3.0,73,0.00,,,0.00,meteohub,2013-02-28 16:17:00,
2013-02-28 11:22:00,49.1,39.7,29.81,SE,135,1.0,3.0,70,0.00,,,0.00,meteohub,2013-02-28 16:22:00,
2013-02-28 11:27:00,48.9,39.2,29.81,SW,225,5.0,5.0,69,0.00,,,0.00,meteohub,2013-02-28 16:27:00,
2013-02-28 11:32:00,48.7,37.9,29.81,SW,225,2.0,5.0,66,0.00,,,0.00,meteohub,2013-02-28 16:32:00,
2013-02-28 11:37:00,49.3,37.6,29.81,North,0,2.0,5.0,64,0.00,,,0.00,meteohub,2013-02-28 16:37:00,
2013-02-28 11:42:00,49.3,36.9,29.80,NE,45,4.0,6.0,62,0.00,,,0.00,meteohub,2013-02-28 16:42:00,
2013-02-28 11:47:00,48.9,36.5,29.81,NW,315,3.0,6.0,62,0.00,,,0.00,meteohub,2013-02-28 16:47:00,
2013-02-28 11:52:00,48.7,36.0,29.81,SW,225,4.0,6.0,61,0.00,,,0.00,meteohub,2013-02-28 16:52:00,
2013-02-28 11:57:00,48.6,36.5,29.81,West,270,2.0,5.0,63,0.00,,,0.00,meteohub,2013-02-28 16:57:00,
2013-02-28 12:02:00,48.7,37.0,29.81,SE,135,2.0,4.0,64,0.00,,,0.00,meteohub,2013-02-28 17:02:00,
2013-02-28 12:07:00,49.3,36.9,29.80,West,270,10.0,10.0,62,0.00,,,0.00,meteohub,2013-02-28 17:07:00,
2013-02-28 12:12:00,48.7,36.0,29.81,NW,315,3.0,10.0,61,0.00,,,0.00,meteohub,2013-02-28 17:12:00,
2013-02-28 12:17:00,48.7,36.0,29.81,North,0,0.0,10.0,61,0.00,,,0.00,meteohub,2013-02-28 17:17:00,
2013-02-28 12:22:00,48.4,36.0,29.81,North,0,2.0,10.0,62,0.00,,,0.00,meteohub,2013-02-28 17:22:00,
2013-02-28 12:27:00,47.8,35.8,29.80,NW,315,4.0,6.0,63,0.00,,,0.00,meteohub,2013-02-28 17:27:00,
2013-02-28 12:33:00,47.5,36.3,29.80,East,90,0.0,6.0,65,0.00,,,0.00,meteohub,2013-02-28 17:33:00,
2013-02-28 12:38:00,47.5,36.7,29.80,NW,315,1.0,6.0,66,0.00,,,0.00,meteohub,2013-02-28 17:38:00,
2013-02-28 12:43:00,47.3,36.5,29.80,West,270,2.0,6.0,66,0.00,,,0.00,meteohub,2013-02-28 17:43:00,
2013-02-28 12:48:00,47.1,36.0,29.79,SW,225,2.0,4.0,65,0.00,,,0.00,meteohub,2013-02-28 17:48:00,
2013-02-28 12:53:00,47.1,36.0,29.79,NE,45,2.0,5.0,65,0.00,,,0.00,meteohub,2013-02-28 17:53:00,
2013-02-28 12:58:00,47.7,36.9,29.79,East,90,2.0,5.0,66,0.00,,,0.00,meteohub,2013-02-28 17:58:00,
2013-02-28 13:03:00,48.0,36.9,29.79,NE,45,1.0,5.0,65,0.00,,,0.00,meteohub,2013-02-28 18:03:00,
2013-02-28 13:08:00,48.6,36.9,29.78,NE,45,3.0,4.0,64,0.00,,,0.00,meteohub,2013-02-28 18:08:00,
2013-02-28 13:14:00,48.9,37.2,29.79,West,270,3.0,4.0,64,0.00,,,0.00,meteohub,2013-02-28 18:14:00,
2013-02-28 13:19:00,49.1,36.7,29.79,South,180,2.0,3.0,62,0.00,,,0.00,meteohub,2013-02-28 18:19:00,
2013-02-28 13:24:00,49.1,36.3,29.79,West,270,3.0,4.0,61,0.00,,,0.00,meteohub,2013-02-28 18:24:00,
2013-02-28 13:29:00,49.1,35.8,29.78,NW,315,1.0,4.0,60,0.00,,,0.00,meteohub,2013-02-28 18:29:00,
2013-02-28 13:34:00,49.5,36.5,29.79,West,270,4.0,4.0,61,0.00,,,0.00,meteohub,2013-02-28 18:34:00,
2013-02-28 13:39:00,49.5,36.1,29.78,West,270,4.0,4.0,60,0.00,,,0.00,meteohub,2013-02-28 18:39:00,
2013-02-28 13:44:00,49.3,35.6,29.78,West,270,2.0,4.0,59,0.00,,,0.00,meteohub,2013-02-28 18:44:00,
2013-02-28 13:49:00,49.5,35.2,29.78,SW,225,2.0,5.0,58,0.00,,,0.00,meteohub,2013-02-28 18:49:00,
2013-02-28 13:54:00,49.3,34.7,29.78,SW,225,2.0,5.0,57,0.00,,,0.00,meteohub,2013-02-28 18:54:00,
2013-02-28 13:59:00,49.3,34.2,29.78,South,180,4.0,5.0,56,0.00,,,0.00,meteohub,2013-02-28 18:59:00,
2013-02-28 14:04:00,49.1,34.2,29.78,West,270,2.0,6.0,56,0.00,,,0.00,meteohub,2013-02-28 19:04:00,
2013-02-28 14:09:00,49.5,34.9,29.78,NW,315,3.0,6.0,57,0.00,,,0.00,meteohub,2013-02-28 19:09:00,
2013-02-28 14:14:00,49.8,35.2,29.78,SW,225,4.0,6.0,57,0.00,,,0.00,meteohub,2013-02-28 19:14:00,
2013-02-28 14:19:00,49.8,34.7,29.78,SW,225,2.0,5.0,56,0.00,,,0.00,meteohub,2013-02-28 19:19:00,
2013-02-28 14:24:00,49.6,34.5,29.78,SE,135,2.0,6.0,56,0.00,,,0.00,meteohub,2013-02-28 19:24:00,
2013-02-28 14:29:00,49.5,34.0,29.78,West,270,2.0,6.0,55,0.00,,,0.00,meteohub,2013-02-28 19:29:00,
2013-02-28 14:34:00,49.6,33.6,29.78,West,270,6.0,6.0,54,0.00,,,0.00,meteohub,2013-02-28 19:34:00,
2013-02-28 14:39:00,49.5,33.1,29.78,West,270,4.0,6.0,53,0.00,,,0.00,meteohub,2013-02-28 19:39:00,
2013-02-28 14:44:00,49.5,32.5,29.79,South,180,2.0,6.0,52,0.00,,,0.00,meteohub,2013-02-28 19:44:00,
2013-02-28 14:49:00,49.6,32.7,29.78,West,270,3.0,6.0,52,0.00,,,0.00,meteohub,2013-02-28 19:49:00,
2013-02-28 14:54:00,50.0,32.5,29.79,SW,225,7.0,7.0,51,0.00,,,0.00,meteohub,2013-02-28 19:54:00,
2013-02-28 14:59:00,50.4,32.0,29.78,SW,225,2.0,7.0,49,0.00,,,0.00,meteohub,2013-02-28 19:59:00,
2013-02-28 15:04:00,50.9,31.8,29.78,NE,45,4.0,7.0,48,0.00,,,0.00,meteohub,2013-02-28 20:04:00,
2013-02-28 15:10:00,50.9,31.5,29.78,North,0,4.0,7.0,47,0.00,,,0.00,meteohub,2013-02-28 20:10:00,
2013-02-28 15:15:00,50.4,31.5,29.78,West,270,2.0,6.0,48,0.00,,,0.00,meteohub,2013-02-28 20:15:00,
2013-02-28 15:20:00,50.0,32.2,29.78,West,270,4.0,7.0,50,0.00,,,0.00,meteohub,2013-02-28 20:20:00,
2013-02-28 15:25:00,50.2,31.8,29.78,SW,225,5.0,7.0,49,0.00,,,0.00,meteohub,2013-02-28 20:25:00,
2013-02-28 15:30:00,50.9,32.9,29.78,NW,315,4.0,7.0,50,0.00,,,0.00,meteohub,2013-02-28 20:30:00,
2013-02-28 15:35:00,51.3,32.7,29.78,West,270,4.0,5.0,49,0.00,,,0.00,meteohub,2013-02-28 20:35:00,
2013-02-28 15:40:00,52.5,32.9,29.78,SW,225,5.0,5.0,47,0.00,,,0.00,meteohub,2013-02-28 20:40:00,
2013-02-28 15:45:00,53.2,33.1,29.78,West,270,3.0,7.0,46,0.00,,,0.00,meteohub,2013-02-28 20:45:00,
2013-02-28 15:50:00,52.5,31.3,29.79,NW,315,6.0,7.0,44,0.00,,,0.00,meteohub,2013-02-28 20:50:00,
2013-02-28 15:57:00,51.1,30.6,29.79,NW,315,4.0,10.0,45,0.00,,,0.00,meteohub,2013-02-28 20:57:00,
2013-02-28 16:02:00,50.5,31.1,29.79,West,270,5.0,10.0,47,0.00,,,0.00,meteohub,2013-02-28 21:02:00,
2013-02-28 16:07:00,50.0,31.6,29.80,NW,315,2.0,10.0,49,0.00,,,0.00,meteohub,2013-02-28 21:07:00,
2013-02-28 16:12:00,49.6,31.8,29.80,NE,45,4.0,8.0,50,0.00,,,0.00,meteohub,2013-02-28 21:12:00,
2013-02-28 16:17:00,49.5,32.0,29.79,West,270,3.0,7.0,51,0.00,,,0.00,meteohub,2013-02-28 21:17:00,
2013-02-28 16:22:00,49.3,32.4,29.80,SW,225,4.0,4.0,52,0.00,,,0.00,meteohub,2013-02-28 21:22:00,
2013-02-28 16:27:00,49.3,32.0,29.80,West,270,2.0,4.0,51,0.00,,,0.00,meteohub,2013-02-28 21:27:00,
2013-02-28 16:32:00,49.1,32.2,29.79,West,270,2.0,4.0,52,0.00,,,0.00,meteohub,2013-02-28 21:32:00,
2013-02-28 16:37:00,48.9,32.0,29.80,SW,225,3.0,7.0,52,0.00,,,0.00,meteohub,2013-02-28 21:37:00,
2013-02-28 16:42:00,48.7,32.4,29.81,NW,315,2.0,7.0,53,0.00,,,0.00,meteohub,2013-02-28 21:42:00,
2013-02-28 16:47:00,48.7,32.9,29.81,South,180,2.0,7.0,54,0.00,,,0.00,meteohub,2013-02-28 21:47:00,
2013-02-28 16:52:00,48.7,32.9,29.81,NE,45,2.0,7.0,54,0.00,,,0.00,meteohub,2013-02-28 21:52:00,
2013-02-28 16:57:00,48.6,32.7,29.81,SW,225,2.0,7.0,54,0.00,,,0.00,meteohub,2013-02-28 21:57:00,
2013-02-28 17:02:00,48.6,32.7,29.81,West,270,5.0,5.0,54,0.00,,,0.00,meteohub,2013-02-28 22:02:00,
2013-02-28 17:07:00,48.4,32.5,29.81,NE,45,2.0,5.0,54,0.00,,,0.00,meteohub,2013-02-28 22:07:00,
2013-02-28 17:12:00,48.2,32.7,29.81,SE,135,1.0,5.0,55,0.00,,,0.00,meteohub,2013-02-28 22:12:00,
2013-02-28 17:17:00,48.2,32.7,29.81,South,180,2.0,5.0,55,0.00,,,0.00,meteohub,2013-02-28 22:17:00,
2013-02-28 17:22:00,48.0,33.1,29.82,NW,315,4.0,4.0,56,0.00,,,0.00,meteohub,2013-02-28 22:22:00,
2013-02-28 17:27:00,48.0,32.5,29.82,North,0,2.0,5.0,55,0.00,,,0.00,meteohub,2013-02-28 22:27:00,
2013-02-28 17:32:00,48.0,33.4,29.82,SW,225,2.0,5.0,57,0.00,,,0.00,meteohub,2013-02-28 22:32:00,
2013-02-28 17:37:00,47.8,33.3,29.82,West,270,3.0,5.0,57,0.00,,,0.00,meteohub,2013-02-28 22:37:00,
2013-02-28 17:42:00,47.5,32.5,29.81,West,270,2.0,3.0,56,0.00,,,0.00,meteohub,2013-02-28 22:42:00,
2013-02-28 17:47:00,47.3,32.4,29.82,North,0,3.0,4.0,56,0.00,,,0.00,meteohub,2013-02-28 22:47:00,
2013-02-28 17:52:00,47.1,32.2,29.82,NW,315,1.0,5.0,56,0.00,,,0.00,meteohub,2013-02-28 22:52:00,
2013-02-28 17:57:00,46.9,32.5,29.82,East,90,1.0,6.0,57,0.00,,,0.00,meteohub,2013-02-28 22:57:00,
2013-02-28 18:02:00,46.6,32.2,29.82,East,90,2.0,6.0,57,0.00,,,0.00,meteohub,2013-02-28 23:02:00,
2013-02-28 18:07:00,46.2,32.2,29.82,West,270,2.0,4.0,58,0.00,,,0.00,meteohub,2013-02-28 23:07:00,
2013-02-28 18:13:00,45.9,32.4,29.82,NE,45,1.0,3.0,59,0.00,,,0.00,meteohub,2013-02-28 23:13:00,
2013-02-28 18:18:00,45.7,33.1,29.82,East,90,0.0,3.0,61,0.00,,,0.00,meteohub,2013-02-28 23:18:00,
2013-02-28 18:23:00,45.1,32.5,29.82,West,270,2.0,2.0,61,0.00,,,0.00,meteohub,2013-02-28 23:23:00,
2013-02-28 18:28:00,44.8,32.2,29.83,NW,315,1.0,2.0,61,0.00,,,0.00,meteohub,2013-02-28 23:28:00,
2013-02-28 18:33:00,44.4,32.2,29.83,West,270,2.0,3.0,62,0.00,,,0.00,meteohub,2013-02-28 23:33:00,
2013-02-28 18:38:00,44.2,32.4,29.83,West,270,0.0,3.0,63,0.00,,,0.00,meteohub,2013-02-28 23:38:00,
2013-02-28 18:43:00,43.9,32.2,29.84,West,270,1.0,3.0,63,0.00,,,0.00,meteohub,2013-02-28 23:43:00,
2013-02-28 18:49:00,43.5,31.8,29.84,SW,225,1.0,2.0,63,0.00,,,0.00,meteohub,2013-02-28 23:49:00,
2013-02-28 18:54:00,43.3,31.6,29.84,West,270,1.0,2.0,63,0.00,,,0.00,meteohub,2013-02-28 23:54:00,
2013-02-28 18:59:00,43.2,31.8,29.84,SW,225,0.0,2.0,64,0.00,,,0.00,meteohub,2013-02-28 23:59:00,
2013-02-28 19:04:00,43.0,31.6,29.84,NE,45,0.0,2.0,64,0.00,,,0.00,meteohub,2013-03-01 00:04:00,
2013-02-28 19:09:00,42.8,31.5,29.85,SW,225,2.0,2.0,64,0.00,,,0.00,meteohub,2013-03-01 00:09:00,
2013-02-28 19:14:00,42.4,31.5,29.85,SE,135,0.0,2.0,65,0.00,,,0.00,meteohub,2013-03-01 00:14:00,
2013-02-28 19:19:00,42.3,31.6,29.85,SE,135,0.0,2.0,66,0.00,,,0.00,meteohub,2013-03-01 00:19:00,
2013-02-28 19:24:00,41.9,31.5,29.85,SW,225,1.0,2.0,66,0.00,,,0.00,meteohub,2013-03-01 00:24:00,
2013-02-28 19:29:00,41.7,31.6,29.86,SW,225,0.0,1.0,67,0.00,,,0.00,meteohub,2013-03-01 00:29:00,
2013-02-28 19:34:00,41.4,31.6,29.85,SW,225,0.0,1.0,68,0.00,,,0.00,meteohub,2013-03-01 00:34:00,
2013-02-28 19:39:00,41.4,32.0,29.86,West,270,1.0,1.0,69,0.00,,,0.00,meteohub,2013-03-01 00:39:00,
2013-02-28 19:44:00,41.0,31.6,29.86,NE,45,1.0,2.0,69,0.00,,,0.00,meteohub,2013-03-01 00:44:00,
2013-02-28 19:49:00,41.0,32.0,29.86,SW,225,1.0,2.0,70,0.00,,,0.00,meteohub,2013-03-01 00:49:00,
2013-02-28 19:54:00,41.0,32.0,29.86,East,90,1.0,2.0,70,0.00,,,0.00,meteohub,2013-03-01 00:54:00,
2013-02-28 19:59:00,40.8,32.2,29.86,West,270,0.0,1.0,71,0.00,,,0.00,meteohub,2013-03-01 00:59:00,
2013-02-28 20:04:00,40.8,31.8,29.86,South,180,1.0,2.0,70,0.00,,,0.00,meteohub,2013-03-01 01:04:00,
2013-02-28 20:09:00,40.8,31.8,29.86,SW,225,0.0,2.0,70,0.00,,,0.00,meteohub,2013-03-01 01:09:00,
2013-02-28 20:14:00,40.5,31.8,29.86,SW,225,0.0,2.0,71,0.00,,,0.00,meteohub,2013-03-01 01:14:00,
2013-02-28 20:20:00,40.3,31.6,29.86,NE,45,2.0,2.0,71,0.00,,,0.00,meteohub,2013-03-01 01:20:00,
2013-02-28 20:25:00,40.1,31.5,29.86,NE,45,1.0,2.0,71,0.00,,,0.00,meteohub,2013-03-01 01:25:00,
2013-02-28 20:30:00,40.1,31.5,29.86,NE,45,0.0,2.0,71,0.00,,,0.00,meteohub,2013-03-01 01:30:00,
2013-02-28 20:35:00,40.1,31.5,29.87,NE,45,0.0,2.0,71,0.00,,,0.00,meteohub,2013-03-01 01:35:00,
2013-02-28 20:40:00,40.1,31.1,29.87,NE,45,0.0,1.0,70,0.00,,,0.00,meteohub,2013-03-01 01:40:00,
2013-02-28 20:45:00,39.9,30.9,29.87,NE,45,0.0,1.0,70,0.00,,,0.00,meteohub,2013-03-01 01:45:00,
2013-02-28 20:50:00,39.7,30.7,29.87,SW,225,0.0,1.0,70,0.00,,,0.00,meteohub,2013-03-01 01:50:00,
2013-02-28 20:55:00,39.6,30.9,29.87,SW,225,0.0,1.0,71,0.00,,,0.00,meteohub,2013-03-01 01:55:00,
2013-02-28 21:00:00,39.2,31.3,29.87,SW,225,0.0,0.0,73,0.00,,,0.00,meteohub,2013-03-01 02:00:00,
2013-02-28 21:05:00,38.8,31.3,29.87,West,270,0.0,0.0,74,0.00,,,0.00,meteohub,2013-03-01 02:05:00,
2013-02-28 21:10:00,38.8,31.6,29.87,SW,225,1.0,1.0,75,0.00,,,0.00,meteohub,2013-03-01 02:10:00,
2013-02-28 21:15:00,39.0,31.8,29.88,SW,225,0.0,2.0,75,0.00,,,0.00,meteohub,2013-03-01 02:15:00,
2013-02-28 21:20:00,38.7,31.5,29.88,SW,225,0.0,2.0,75,0.00,,,0.00,meteohub,2013-03-01 02:20:00,
2013-02-28 21:25:00,38.5,31.6,29.88,East,90,1.0,1.0,76,0.00,,,0.00,meteohub,2013-03-01 02:25:00,
2013-02-28 21:30:00,38.3,31.5,29.88,East,90,0.0,1.0,76,0.00,,,0.00,meteohub,2013-03-01 02:30:00,
2013-02-28 21:35:00,38.1,31.3,29.88,East,90,0.0,1.0,76,0.00,,,0.00,meteohub,2013-03-01 02:35:00,
2013-02-28 21:40:00,37.8,30.9,29.88,East,90,0.0,1.0,76,0.00,,,0.00,meteohub,2013-03-01 02:40:00,
2013-02-28 21:45:00,37.6,30.7,29.89,SE,135,0.0,1.0,76,0.00,,,0.00,meteohub,2013-03-01 02:45:00,
2013-02-28 21:51:00,37.4,30.9,29.89,SE,135,0.0,1.0,77,0.00,,,0.00,meteohub,2013-03-01 02:51:00,
2013-02-28 21:56:00,37.4,30.9,29.89,SW,225,0.0,2.0,77,0.00,,,0.00,meteohub,2013-03-01 02:56:00,
2013-02-28 22:01:00,37.4,30.9,29.89,SW,225,0.0,2.0,77,0.00,,,0.00,meteohub,2013-03-01 03:01:00,
2013-02-28 22:06:00,37.0,29.1,29.89,SW,225,0.0,1.0,73,0.00,,,0.00,meteohub,2013-03-01 03:06:00,
2013-02-28 22:11:00,36.9,28.9,29.89,SW,225,0.0,1.0,73,0.00,,,0.00,meteohub,2013-03-01 03:11:00,
2013-02-28 22:16:00,36.9,29.3,29.89,East,90,0.0,1.0,74,0.00,,,0.00,meteohub,2013-03-01 03:16:00,
2013-02-28 22:21:00,37.0,29.5,29.90,SE,135,0.0,1.0,74,0.00,,,0.00,meteohub,2013-03-01 03:21:00,
2013-02-28 22:26:00,36.7,29.1,29.90,SE,135,1.0,1.0,74,0.00,,,0.00,meteohub,2013-03-01 03:26:00,
2013-02-28 22:31:00,36.5,28.9,29.90,SE,135,0.0,1.0,74,0.00,,,0.00,meteohub,2013-03-01 03:31:00,
2013-02-28 22:36:00,36.5,28.9,29.89,SW,225,1.0,1.0,74,0.00,,,0.00,meteohub,2013-03-01 03:36:00,
2013-02-28 22:41:00,36.1,28.9,29.89,SW,225,0.0,1.0,75,0.00,,,0.00,meteohub,2013-03-01 03:41:00,
2013-02-28 22:46:00,35.8,28.9,29.89,North,-999,-999.0,1.0,76,0.00,,,0.00,meteohub,2013-03-01 03:46:00,
2013-02-28 22:51:00,35.8,28.9,29.89,North,-999,-999.0,1.0,76,0.00,,,0.00,meteohub,2013-03-01 03:51:00,
2013-02-28 22:56:00,35.2,29.3,29.89,North,-999,-999.0,1.0,79,0.00,,,0.00,meteohub,2013-03-01 03:56:00,
2013-02-28 23:01:00,34.9,29.3,29.89,North,-999,-999.0,-999.0,80,0.00,,,0.00,meteohub,2013-03-01 04:01:00,
2013-02-28 23:07:00,34.9,29.3,29.90,North,-999,-999.0,-999.0,80,0.00,,,0.00,meteohub,2013-03-01 04:07:00,
2013-02-28 23:12:00,34.2,29.3,29.90,North,-999,-999.0,-999.0,82,0.00,,,0.00,meteohub,2013-03-01 04:12:00,
2013-02-28 23:17:00,33.8,29.1,29.90,North,-999,-999.0,-999.0,83,0.00,,,0.00,meteohub,2013-03-01 04:17:00,
2013-02-28 23:22:00,33.6,29.3,29.90,North,-999,-999.0,-999.0,84,0.00,,,0.00,meteohub,2013-03-01 04:22:00,
2013-02-28 23:27:00,33.4,29.5,29.90,North,-999,-999.0,-999.0,85,0.00,,,0.00,meteohub,2013-03-01 04:27:00,
2013-02-28 23:32:00,33.3,29.5,29.90,North,-999,-999.0,-999.0,86,0.00,,,0.00,meteohub,2013-03-01 04:32:00,
2013-02-28 23:37:00,33.1,29.7,29.90,North,-999,-999.0,-999.0,87,0.00,,,0.00,meteohub,2013-03-01 04:37:00,
2013-02-28 23:42:00,33.1,29.8,29.90,North,-999,-999.0,-999.0,88,0.00,,,0.00,meteohub,2013-03-01 04:42:00,
2013-02-28 23:47:00,32.9,29.7,29.90,North,-999,-999.0,-999.0,88,0.00,,,0.00,meteohub,2013-03-01 04:47:00,
2013-02-28 23:52:00,32.7,29.5,29.90,North,-999,-999.0,-999.0,88,0.00,,,0.00,meteohub,2013-03-01 04:52:00,
2013-02-28 23:57:00,32.7,29.5,29.90,North,-999,-999.0,-999.0,88,0.00,,,0.00,meteohub,2013-03-01 04:57:00,